createdAt,value
2022-10-31T00:01:31.362Z,66.34
2022-10-31T00:03:57.889Z,67.33
2022-10-31T00:06:25.006Z,66.43
2022-10-31T00:08:56.010Z,66.71
2022-10-31T00:11:22.826Z,66.79
2022-10-31T00:13:49.346Z,66.17
2022-10-31T00:16:16.434Z,66.57
2022-10-31T00:18:43.067Z,66.13
2022-10-31T00:21:09.533Z,66.31
2022-10-31T00:23:36.146Z,66.38
2022-10-31T00:26:04.759Z,65.78
2022-10-31T00:28:31.789Z,64.86
2022-10-31T00:31:00.025Z,65.90
2022-10-31T00:33:26.461Z,66.02
2022-10-31T00:35:52.845Z,66.23
2022-10-31T00:38:19.275Z,64.66
2022-10-31T00:40:45.710Z,64.80
2022-10-31T00:43:13.486Z,66.59
2022-10-31T00:45:39.963Z,65.78
2022-10-31T00:48:06.661Z,65.21
2022-10-31T00:50:33.191Z,65.21
2022-10-31T00:52:59.773Z,66.60
2022-10-31T00:55:26.336Z,67.83
2022-10-31T00:57:52.788Z,67.57
2022-10-31T01:00:21.029Z,66.92
2022-10-31T01:02:47.688Z,66.28
2022-10-31T01:05:14.852Z,67.73
2022-10-31T01:07:42.333Z,67.33
2022-10-31T01:10:10.058Z,66.41
2022-10-31T01:12:37.298Z,67.61
2022-10-31T01:15:05.165Z,66.56
2022-10-31T01:17:33.031Z,66.77
2022-10-31T01:19:59.413Z,66.54
2022-10-31T01:22:25.856Z,68.04
2022-10-31T01:24:52.260Z,66.96
2022-10-31T01:27:18.835Z,67.64
2022-10-31T01:29:45.248Z,67.09
2022-10-31T01:32:11.662Z,67.38
2022-10-31T01:34:40.532Z,67.90
2022-10-31T01:37:09.990Z,69.33
2022-10-31T01:39:36.490Z,68.19
2022-10-31T01:42:03.015Z,68.59
2022-10-31T01:44:52.862Z,70.52
2022-10-31T01:47:22.367Z,68.69
2022-10-31T01:49:53.511Z,69.77
2022-10-31T01:52:23.792Z,69.19
2022-10-31T01:54:55.355Z,68.73
2022-10-31T01:57:22.850Z,69.31
2022-10-31T01:59:52.847Z,69.85
2022-10-31T02:02:20.263Z,70.94
2022-10-31T02:04:48.304Z,71.30
2022-10-31T02:07:21.013Z,71.77
2022-10-31T02:09:50.040Z,72.70
2022-10-31T02:12:18.275Z,72.11
2022-10-31T02:14:45.025Z,72.52
2022-10-31T02:17:11.581Z,71.04
2022-10-31T02:19:52.119Z,70.85
2022-10-31T02:22:27.048Z,72.02
2022-10-31T02:25:07.041Z,71.32
2022-10-31T02:28:16.090Z,73.58
2022-10-31T02:31:08.618Z,72.11
2022-10-31T02:33:42.912Z,72.82
2022-10-31T02:36:18.085Z,72.69
2022-10-31T02:38:57.177Z,73.17
2022-10-31T02:41:35.906Z,73.00
2022-10-31T02:44:10.216Z,72.33
2022-10-31T02:46:45.049Z,73.48
2022-10-31T02:49:23.740Z,73.38
2022-10-31T02:51:51.192Z,73.77
2022-10-31T02:54:24.158Z,72.47
2022-10-31T02:56:53.457Z,72.54
2022-10-31T02:59:20.607Z,72.46
2022-10-31T03:02:01.885Z,72.99
2022-10-31T03:05:14.657Z,73.35
2022-10-31T03:07:48.115Z,73.67
2022-10-31T03:10:21.016Z,73.87
2022-10-31T03:12:55.975Z,73.99
2022-10-31T03:15:27.842Z,72.43
2022-10-31T03:18:09.353Z,73.05
2022-10-31T03:20:41.049Z,73.27
2022-10-31T03:23:12.179Z,73.19
2022-10-31T03:25:40.338Z,74.75
2022-10-31T03:28:08.116Z,73.40
2022-10-31T03:30:38.287Z,74.04
2022-10-31T03:33:10.731Z,74.18
2022-10-31T03:35:39.757Z,74.34
2022-10-31T03:38:08.053Z,73.93
2022-10-31T03:40:37.732Z,73.65
2022-10-31T03:43:08.605Z,73.00
2022-10-31T03:45:38.695Z,73.39
2022-10-31T03:48:06.874Z,74.75
2022-10-31T03:50:39.946Z,74.48
2022-10-31T03:53:12.619Z,75.66
2022-10-31T03:55:44.394Z,75.16
2022-10-31T04:00:52.723Z,74.39
2022-10-31T04:03:26.122Z,74.29
2022-10-31T04:05:55.889Z,73.71
2022-10-31T04:08:27.760Z,73.68
2022-10-31T04:10:56.948Z,73.69
2022-10-31T04:13:27.838Z,75.10
2022-10-31T04:15:55.894Z,74.24
2022-10-31T04:18:24.992Z,73.84
2022-10-31T04:21:01.139Z,74.45
2022-10-31T04:23:27.808Z,74.79
2022-10-31T04:25:54.233Z,73.72
2022-10-31T04:28:20.677Z,75.00
2022-10-31T04:30:47.116Z,74.60
2022-10-31T04:33:13.531Z,74.77
2022-10-31T04:35:41.338Z,75.16
2022-10-31T04:38:07.801Z,74.37
2022-10-31T04:40:34.223Z,75.12
2022-10-31T04:43:00.961Z,75.29
2022-10-31T04:45:27.890Z,75.37
2022-10-31T04:47:54.266Z,75.99
2022-10-31T04:50:20.800Z,74.96
2022-10-31T04:52:48.570Z,76.98
2022-10-31T04:55:15.120Z,75.04
2022-10-31T04:57:42.382Z,75.14
2022-10-31T05:00:10.030Z,77.24
2022-10-31T05:02:44.668Z,76.37
2022-10-31T05:05:11.563Z,77.08
2022-10-31T05:07:39.746Z,76.87
2022-10-31T05:10:08.777Z,77.86
2022-10-31T05:12:35.181Z,76.53
2022-10-31T05:15:01.623Z,75.75
2022-10-31T05:17:28.005Z,76.18
2022-10-31T05:19:54.412Z,76.00
2022-10-31T05:22:20.817Z,75.03
2022-10-31T05:24:48.141Z,75.34
2022-10-31T05:27:16.287Z,75.46
2022-10-31T05:29:42.711Z,75.30
2022-10-31T05:32:09.130Z,73.22
2022-10-31T05:34:35.541Z,78.04
2022-10-31T05:37:02.021Z,76.83
2022-10-31T05:39:28.431Z,77.08
2022-10-31T05:41:54.886Z,75.95
2022-10-31T05:44:22.737Z,75.43
2022-10-31T05:46:49.203Z,75.78
2022-10-31T05:49:15.925Z,75.48
2022-10-31T05:51:42.448Z,74.99
2022-10-31T05:54:13.301Z,75.21
2022-10-31T05:56:42.232Z,75.92
2022-10-31T05:59:08.715Z,75.22
2022-10-31T06:01:36.514Z,74.67
2022-10-31T06:04:02.969Z,75.71
2022-10-31T06:06:29.349Z,75.16
2022-10-31T06:08:55.894Z,75.52
2022-10-31T06:11:22.307Z,74.80
2022-10-31T06:13:48.890Z,76.98
2022-10-31T06:16:15.293Z,75.16
2022-10-31T06:18:43.037Z,76.95
2022-10-31T06:21:10.773Z,75.13
2022-10-31T06:23:39.018Z,74.99
2022-10-31T06:26:05.601Z,74.58
2022-10-31T06:28:32.014Z,74.68
2022-10-31T06:30:58.414Z,73.51
2022-10-31T06:33:25.256Z,73.67
2022-10-31T06:35:53.031Z,72.74
2022-10-31T06:38:19.483Z,72.63
2022-10-31T06:40:45.961Z,72.72
2022-10-31T06:43:12.359Z,74.28
2022-10-31T06:45:38.818Z,76.55
2022-10-31T06:48:21.744Z,75.41
2022-10-31T06:50:48.510Z,74.54
2022-10-31T06:53:16.553Z,76.17
2022-10-31T06:55:43.402Z,75.60
2022-10-31T06:58:11.608Z,74.16
2022-10-31T07:00:38.165Z,76.33
2022-10-31T07:03:06.604Z,75.92
2022-10-31T07:05:33.394Z,76.84
2022-10-31T07:08:01.759Z,75.88
2022-10-31T07:10:37.251Z,75.24
2022-10-31T07:13:09.468Z,74.58
2022-10-31T07:15:39.310Z,75.35
2022-10-31T07:18:09.037Z,75.45
2022-10-31T07:20:35.825Z,73.56
2022-10-31T07:23:02.575Z,72.75
2022-10-31T07:25:30.733Z,72.86
2022-10-31T07:27:57.516Z,75.69
2022-10-31T07:30:24.136Z,75.23
2022-10-31T07:32:51.539Z,75.75
2022-10-31T07:35:20.522Z,77.30
2022-10-31T07:37:47.329Z,77.62
2022-10-31T07:40:14.038Z,75.11
2022-10-31T07:42:43.028Z,75.09
2022-10-31T07:45:11.629Z,73.97
2022-10-31T07:47:40.894Z,74.56
2022-10-31T07:50:08.896Z,74.66
2022-10-31T07:52:35.278Z,74.21
2022-10-31T07:55:02.032Z,73.96
2022-10-31T07:57:34.228Z,73.92
2022-10-31T08:00:03.335Z,73.96
2022-10-31T08:02:29.775Z,73.25
2022-10-31T08:04:58.681Z,74.69
2022-10-31T08:07:27.791Z,77.68
2022-10-31T08:09:54.453Z,75.22
2022-10-31T08:12:21.056Z,73.79
2022-10-31T08:14:47.799Z,73.70
2022-10-31T08:17:15.549Z,72.94
2022-10-31T08:19:41.920Z,73.21
2022-10-31T08:22:08.358Z,71.64
2022-10-31T08:24:34.808Z,73.04
2022-10-31T08:27:01.241Z,71.63
2022-10-31T08:29:27.756Z,71.67
2022-10-31T08:31:54.183Z,71.43
2022-10-31T08:34:21.930Z,70.23
2022-10-31T08:36:48.334Z,71.35
2022-10-31T08:39:14.744Z,71.55
2022-10-31T08:41:41.186Z,71.17
2022-10-31T08:44:07.587Z,71.33
2022-10-31T08:46:34.004Z,71.99
2022-10-31T08:49:00.445Z,71.05
2022-10-31T08:51:28.175Z,71.98
2022-10-31T08:53:54.598Z,71.11
2022-10-31T08:56:20.995Z,70.75
2022-10-31T08:58:47.377Z,71.04
2022-10-31T09:01:14.054Z,71.38
2022-10-31T09:03:40.555Z,71.75
2022-10-31T09:06:07.374Z,72.34
2022-10-31T09:08:36.163Z,69.94
2022-10-31T09:11:03.571Z,69.51
2022-10-31T09:13:30.603Z,69.65
2022-10-31T09:15:58.065Z,70.03
2022-10-31T09:18:24.629Z,70.74
2022-10-31T09:20:51.563Z,69.49
2022-10-31T09:23:19.942Z,68.77
2022-10-31T09:25:50.795Z,69.15
2022-10-31T09:28:19.106Z,69.73
2022-10-31T09:30:47.818Z,70.21
2022-10-31T09:33:14.705Z,71.93
2022-10-31T09:35:42.160Z,73.51
2022-10-31T09:38:11.117Z,71.96
2022-10-31T09:40:39.398Z,70.95
2022-10-31T09:43:15.760Z,70.07
2022-10-31T09:45:51.635Z,70.86
2022-10-31T09:48:32.021Z,67.62
2022-10-31T09:51:01.210Z,67.66
2022-10-31T09:53:34.942Z,69.48
2022-10-31T09:56:05.608Z,68.63
2022-10-31T09:58:39.081Z,69.21
2022-10-31T10:01:06.331Z,68.46
2022-10-31T10:03:40.197Z,69.86
2022-10-31T10:06:14.641Z,69.31
2022-10-31T10:08:41.221Z,69.25
2022-10-31T10:11:23.654Z,67.00
2022-10-31T10:14:02.238Z,69.46
2022-10-31T10:16:52.677Z,69.71
2022-10-31T10:19:43.566Z,66.79
2022-10-31T10:22:17.029Z,67.22
2022-10-31T10:25:01.430Z,66.49
2022-10-31T10:27:47.703Z,66.61
2022-10-31T10:30:18.344Z,68.77
2022-10-31T10:32:51.908Z,67.53
2022-10-31T10:35:24.174Z,67.29
2022-10-31T10:37:54.995Z,68.48
2022-10-31T10:40:24.573Z,70.07
2022-10-31T10:42:58.937Z,69.92
2022-10-31T10:45:26.887Z,70.90
2022-10-31T10:48:05.666Z,69.18
2022-10-31T10:50:37.213Z,68.88
2022-10-31T10:53:17.321Z,67.35
2022-10-31T10:55:53.144Z,65.43
2022-10-31T10:58:19.626Z,67.06
2022-10-31T11:00:48.279Z,67.57
2022-10-31T11:03:15.440Z,67.59
2022-10-31T11:05:46.084Z,68.88
2022-10-31T11:08:27.686Z,69.85
2022-10-31T11:10:59.822Z,71.67
2022-10-31T11:13:26.314Z,70.62
2022-10-31T11:15:59.288Z,71.70
2022-10-31T11:18:27.873Z,69.81
2022-10-31T11:20:56.339Z,70.84
2022-10-31T11:23:24.230Z,68.75
2022-10-31T11:25:53.634Z,69.33
2022-10-31T11:28:20.097Z,68.49
2022-10-31T11:30:48.734Z,66.99
2022-10-31T11:33:21.620Z,68.59
2022-10-31T11:35:50.917Z,69.66
2022-10-31T11:38:22.806Z,67.12
2022-10-31T11:40:54.208Z,65.27
2022-10-31T11:43:20.938Z,66.29
2022-10-31T11:45:47.662Z,68.68
2022-10-31T11:48:20.098Z,67.18
2022-10-31T11:50:50.366Z,66.96
2022-10-31T11:53:19.163Z,68.64
2022-10-31T11:55:46.840Z,68.41
2022-10-31T11:58:24.544Z,68.09
2022-10-31T12:00:53.356Z,68.39
2022-10-31T12:03:34.307Z,67.46
2022-10-31T12:06:04.429Z,66.01
2022-10-31T12:08:34.184Z,65.57
2022-10-31T12:11:12.139Z,66.95
2022-10-31T12:13:46.522Z,65.62
2022-10-31T12:16:19.835Z,66.86
2022-10-31T12:19:01.575Z,66.96
2022-10-31T12:21:42.122Z,66.93
2022-10-31T12:24:20.821Z,68.12
2022-10-31T12:26:56.461Z,67.33
2022-10-31T12:29:36.698Z,68.29
2022-10-31T12:32:18.747Z,67.79
2022-10-31T12:35:09.295Z,68.62
2022-10-31T12:37:49.366Z,67.18
2022-10-31T12:40:37.034Z,65.80
2022-10-31T12:43:18.208Z,68.51
2022-10-31T12:45:53.364Z,69.99
2022-10-31T12:48:43.605Z,69.65
2022-10-31T12:51:20.356Z,69.15
2022-10-31T12:54:06.956Z,68.42
2022-10-31T12:56:43.550Z,68.96
2022-10-31T12:59:13.144Z,68.73
2022-10-31T13:01:47.242Z,69.77
2022-10-31T13:04:20.535Z,70.53
2022-10-31T13:06:53.826Z,70.33
2022-10-31T13:09:27.368Z,70.32
2022-10-31T13:11:57.807Z,70.17
2022-10-31T13:14:27.893Z,69.24
2022-10-31T13:16:56.533Z,70.08
2022-10-31T13:19:26.439Z,68.50
2022-10-31T13:22:00.828Z,68.84
2022-10-31T13:24:34.753Z,68.22
2022-10-31T13:27:10.942Z,68.43
2022-10-31T13:29:42.973Z,68.57
2022-10-31T13:32:11.233Z,69.02
2022-10-31T13:34:40.380Z,67.71
2022-10-31T13:37:17.360Z,68.51
2022-10-31T13:39:56.086Z,69.72
2022-10-31T13:42:30.821Z,69.40
2022-10-31T13:45:12.292Z,70.91
2022-10-31T13:47:38.901Z,69.90
2022-10-31T13:50:19.508Z,70.10
2022-10-31T13:52:47.774Z,71.88
2022-10-31T13:55:42.333Z,72.32
2022-10-31T13:58:27.647Z,73.54
2022-10-31T14:01:16.144Z,73.10
2022-10-31T14:06:39.534Z,73.40
2022-10-31T14:09:19.725Z,72.94
2022-10-31T14:11:48.162Z,74.54
2022-10-31T14:14:15.645Z,75.74
2022-10-31T14:16:45.163Z,75.21
2022-10-31T14:19:17.038Z,76.32
2022-10-31T14:21:45.454Z,77.20
2022-10-31T14:24:35.343Z,76.85
2022-10-31T14:27:04.383Z,78.89
2022-10-31T14:29:31.880Z,78.10
2022-10-31T14:32:05.305Z,77.67
2022-10-31T14:34:35.070Z,78.45
2022-10-31T14:37:35.476Z,78.11
2022-10-31T14:40:18.118Z,78.35
2022-10-31T14:43:02.791Z,78.51
2022-10-31T14:45:38.149Z,79.21
2022-10-31T14:48:15.203Z,78.97
2022-10-31T14:50:47.088Z,79.93
2022-10-31T14:53:19.276Z,80.04
2022-10-31T14:55:50.057Z,80.02
2022-10-31T14:58:21.176Z,78.68
2022-10-31T15:00:48.177Z,77.94
2022-10-31T15:03:17.643Z,79.38
2022-10-31T15:05:49.985Z,79.49
2022-10-31T15:08:30.073Z,80.98
2022-10-31T15:10:57.922Z,81.05
2022-10-31T15:13:24.465Z,81.23
2022-10-31T15:15:54.975Z,79.98
2022-10-31T15:18:24.274Z,81.76
2022-10-31T15:20:52.175Z,80.33
2022-10-31T15:23:25.145Z,81.33
2022-10-31T15:25:58.671Z,82.20
2022-10-31T15:28:26.990Z,81.41
2022-10-31T15:30:55.503Z,80.94
2022-10-31T15:33:25.334Z,82.59
2022-10-31T15:35:56.410Z,82.35
2022-10-31T15:38:22.888Z,82.29
2022-10-31T15:40:55.501Z,83.80
2022-10-31T15:43:22.515Z,83.28
2022-10-31T15:45:50.591Z,83.59
2022-10-31T15:48:18.976Z,83.16
2022-10-31T15:50:49.570Z,83.50
2022-10-31T15:53:19.977Z,83.09
2022-10-31T15:55:49.915Z,82.68
2022-10-31T15:58:17.804Z,84.02
2022-10-31T16:00:44.570Z,84.97
2022-10-31T16:03:26.715Z,84.68
2022-10-31T16:05:55.254Z,85.01
2022-10-31T16:08:25.127Z,83.55
2022-10-31T16:10:51.829Z,83.89
2022-10-31T16:13:18.453Z,83.66
2022-10-31T16:15:55.797Z,84.01
2022-10-31T16:18:37.227Z,84.58
2022-10-31T16:21:04.102Z,83.50
2022-10-31T16:23:30.635Z,83.89
2022-10-31T16:25:57.141Z,84.41
2022-10-31T16:28:28.295Z,84.64
2022-10-31T16:30:57.921Z,83.56
2022-10-31T16:33:27.943Z,83.28
2022-10-31T16:36:09.536Z,83.26
2022-10-31T16:38:42.500Z,81.43
2022-10-31T16:41:08.946Z,82.51
2022-10-31T16:43:35.672Z,82.81
2022-10-31T16:46:02.135Z,84.25
2022-10-31T16:48:28.607Z,84.00
2022-10-31T16:50:56.348Z,83.52
2022-10-31T16:53:22.918Z,82.61
2022-10-31T16:55:56.561Z,83.56
2022-10-31T16:58:24.139Z,83.33
2022-10-31T17:00:51.112Z,83.11
2022-10-31T17:03:17.663Z,82.60
2022-10-31T17:05:44.505Z,83.69
2022-10-31T17:08:12.787Z,81.90
2022-10-31T17:10:40.498Z,83.29
2022-10-31T17:13:11.121Z,84.42
2022-10-31T17:15:41.227Z,83.58
2022-10-31T17:18:07.641Z,84.73
2022-10-31T17:20:34.059Z,84.89
2022-10-31T17:23:00.808Z,85.16
2022-10-31T17:25:30.406Z,82.73
2022-10-31T17:27:56.873Z,82.82
2022-10-31T17:30:33.452Z,83.32
2022-10-31T17:33:00.170Z,83.99
2022-10-31T17:35:26.923Z,82.89
2022-10-31T17:37:53.335Z,82.93
2022-10-31T17:40:21.656Z,83.08
2022-10-31T17:42:53.975Z,82.28
2022-10-31T17:45:21.657Z,82.33
2022-10-31T17:47:48.839Z,80.62
2022-10-31T17:50:19.270Z,79.92
2022-10-31T17:52:45.943Z,79.84
2022-10-31T17:55:12.908Z,79.53
2022-10-31T17:57:39.729Z,81.77
2022-10-31T18:00:11.750Z,81.28
2022-10-31T18:02:38.299Z,83.10
2022-10-31T18:05:05.638Z,83.40
2022-10-31T18:07:32.198Z,83.98
2022-10-31T18:09:58.878Z,82.73
2022-10-31T18:12:25.634Z,82.30
2022-10-31T18:14:52.068Z,81.42
2022-10-31T18:17:20.215Z,80.60
2022-10-31T18:19:46.718Z,82.07
2022-10-31T18:22:13.740Z,84.93
2022-10-31T18:24:40.193Z,85.39
2022-10-31T18:27:06.990Z,81.86
2022-10-31T18:29:33.586Z,83.69
2022-10-31T18:31:59.979Z,82.71
2022-10-31T18:34:27.713Z,80.80
2022-10-31T18:36:54.136Z,79.65
2022-10-31T18:39:20.503Z,79.78
2022-10-31T18:41:46.893Z,81.48
2022-10-31T18:44:13.310Z,79.47
2022-10-31T18:46:39.697Z,80.74
2022-10-31T18:49:06.078Z,81.21
2022-10-31T18:51:33.843Z,80.58
2022-10-31T18:54:01.215Z,80.11
2022-10-31T18:56:29.053Z,83.50
2022-10-31T18:58:55.484Z,85.76
2022-10-31T19:01:22.333Z,86.13
2022-10-31T19:03:53.051Z,83.84
2022-10-31T19:06:19.610Z,85.45
2022-10-31T19:08:47.366Z,85.72
2022-10-31T19:11:15.126Z,87.50
2022-10-31T19:13:42.572Z,85.91
2022-10-31T19:16:10.981Z,85.31
2022-10-31T19:18:38.392Z,86.01
2022-10-31T19:21:06.112Z,87.27
2022-10-31T19:23:32.542Z,88.70
2022-10-31T19:26:00.453Z,88.67
2022-10-31T19:28:29.473Z,87.56
2022-10-31T19:30:55.890Z,88.20
2022-10-31T19:33:22.441Z,89.96
2022-10-31T19:35:48.878Z,90.17
2022-10-31T19:38:15.265Z,88.80
2022-10-31T19:40:41.682Z,91.43
2022-10-31T19:43:09.648Z,89.90
2022-10-31T19:45:36.045Z,90.04
2022-10-31T19:48:02.831Z,90.68
2022-10-31T19:50:29.757Z,91.44
2022-10-31T19:52:56.196Z,92.00
2022-10-31T19:55:22.646Z,92.36
2022-10-31T19:58:01.330Z,91.99
2022-10-31T20:00:29.866Z,92.96
2022-10-31T20:02:56.270Z,93.59
2022-10-31T20:05:22.699Z,94.69
2022-10-31T20:07:49.114Z,93.15
2022-10-31T20:10:15.718Z,91.44
2022-10-31T20:12:42.127Z,91.00
2022-10-31T20:15:09.322Z,90.66
2022-10-31T20:17:37.130Z,91.44
2022-10-31T20:20:04.230Z,92.92
2022-10-31T20:22:30.717Z,93.74
2022-10-31T20:24:57.138Z,94.84
2022-10-31T20:27:23.868Z,94.19
2022-10-31T20:29:50.234Z,95.88
2022-10-31T20:32:16.813Z,96.27
2022-10-31T20:34:44.643Z,95.33
2022-10-31T20:37:11.106Z,92.96
2022-10-31T20:39:37.897Z,93.18
2022-10-31T20:42:05.218Z,93.42
2022-10-31T20:44:31.991Z,92.88
2022-10-31T20:46:58.691Z,93.44
2022-10-31T20:49:25.317Z,92.84
2022-10-31T20:51:53.066Z,92.63
2022-10-31T20:54:19.489Z,93.80
2022-10-31T20:56:45.994Z,92.89
2022-10-31T20:59:12.426Z,90.37
2022-10-31T21:01:39.071Z,89.52
2022-10-31T21:04:05.704Z,91.08
2022-10-31T21:06:32.149Z,90.71
2022-10-31T21:08:59.909Z,89.53
2022-10-31T21:11:27.791Z,90.54
2022-10-31T21:13:54.468Z,91.95
2022-10-31T21:16:22.845Z,92.41
2022-10-31T21:18:50.080Z,93.44
2022-10-31T21:21:18.704Z,93.09
2022-10-31T21:23:45.693Z,88.98
2022-10-31T21:26:16.070Z,89.91
2022-10-31T21:28:42.852Z,86.78
2022-10-31T21:31:11.070Z,86.55
2022-10-31T21:33:37.989Z,87.70
2022-10-31T21:36:05.590Z,86.46
2022-10-31T21:38:32.708Z,88.79
2022-10-31T21:40:59.835Z,90.36
2022-10-31T21:43:27.858Z,90.33
2022-10-31T21:45:54.384Z,91.35
2022-10-31T21:48:20.879Z,93.07
2022-10-31T21:50:47.299Z,92.08
2022-10-31T21:53:13.686Z,91.66
2022-10-31T21:55:40.115Z,89.80
2022-10-31T21:58:06.538Z,90.29
2022-10-31T22:00:34.271Z,90.76
2022-10-31T22:03:01.601Z,89.04
2022-10-31T22:05:28.042Z,86.41
2022-10-31T22:07:54.444Z,91.79
2022-10-31T22:10:20.841Z,91.79
2022-10-31T22:12:47.227Z,91.54
2022-10-31T22:15:14.090Z,90.47
2022-10-31T22:17:41.842Z,92.44
2022-10-31T22:20:09.211Z,91.69
2022-10-31T22:22:35.629Z,91.63
2022-10-31T22:25:02.014Z,91.79
2022-10-31T22:27:28.384Z,91.33
2022-10-31T22:29:56.651Z,89.76
2022-10-31T22:32:23.248Z,89.22
2022-10-31T22:34:50.962Z,90.61
2022-10-31T22:37:19.693Z,92.35
2022-10-31T22:39:46.389Z,92.58
2022-10-31T22:42:12.789Z,91.55
2022-10-31T22:44:39.206Z,92.73
2022-10-31T22:47:05.613Z,93.30
2022-10-31T22:49:32.009Z,92.06
2022-10-31T22:51:59.793Z,93.45
2022-10-31T22:54:26.534Z,93.74
2022-10-31T22:56:52.929Z,92.20
2022-10-31T22:59:19.386Z,91.25
2022-10-31T23:01:46.269Z,91.35
2022-10-31T23:04:13.747Z,89.11
2022-10-31T23:06:40.198Z,90.07
2022-10-31T23:09:08.886Z,92.50
2022-10-31T23:11:38.820Z,89.64
2022-10-31T23:14:07.037Z,90.45
2022-10-31T23:16:34.289Z,88.87
2022-10-31T23:19:01.795Z,90.00
2022-10-31T23:21:28.300Z,88.54
2022-10-31T23:23:55.375Z,90.26
2022-10-31T23:26:23.132Z,89.34
2022-10-31T23:28:49.568Z,90.73
2022-10-31T23:31:15.984Z,89.82
2022-10-31T23:33:42.407Z,88.42
2022-10-31T23:36:09.146Z,88.56
2022-10-31T23:38:35.536Z,86.40
2022-10-31T23:41:01.970Z,86.77
2022-10-31T23:43:29.707Z,87.14
2022-10-31T23:45:56.096Z,87.28
2022-10-31T23:48:22.485Z,88.74
2022-10-31T23:50:49.095Z,87.60
2022-10-31T23:53:15.501Z,87.22
2022-10-31T23:55:41.915Z,86.14
2022-10-31T23:58:08.319Z,84.11
